createdAt,value
2019-06-26T00:01:04.150Z,72.40
2019-06-26T00:03:34.426Z,72.30
2019-06-26T00:06:05.069Z,72.10
2019-06-26T00:08:35.775Z,72.00
2019-06-26T00:11:06.593Z,72.10
2019-06-26T00:13:36.947Z,71.90
2019-06-26T00:16:07.362Z,71.90
2019-06-26T00:18:37.547Z,71.80
2019-06-26T00:21:07.740Z,71.80
2019-06-26T00:23:38.164Z,71.70
2019-06-26T00:26:08.455Z,71.60
2019-06-26T00:28:38.718Z,71.60
2019-06-26T00:31:10.020Z,71.40
2019-06-26T00:33:40.292Z,71.10
2019-06-26T00:36:10.487Z,71.10
2019-06-26T00:38:40.732Z,71.00
2019-06-26T00:41:10.932Z,70.80
2019-06-26T00:43:42.555Z,70.70
2019-06-26T00:46:13.005Z,70.60
2019-06-26T00:48:43.318Z,70.60
2019-06-26T00:51:13.794Z,70.30
2019-06-26T00:53:45.420Z,70.30
2019-06-26T00:56:15.741Z,70.10
2019-06-26T00:58:46.175Z,69.90
2019-06-26T01:01:16.753Z,69.50
2019-06-26T01:03:47.460Z,69.00
2019-06-26T01:06:19.418Z,69.00
2019-06-26T01:08:49.704Z,68.80
2019-06-26T01:11:21.646Z,68.60
2019-06-26T01:13:58.119Z,68.50
2019-06-26T01:16:23.979Z,68.40
2019-06-26T01:18:54.432Z,68.40
2019-06-26T01:21:25.086Z,68.40
2019-06-26T01:23:55.383Z,68.40
2019-06-26T01:26:26.204Z,68.50
2019-06-26T01:28:57.009Z,68.30
2019-06-26T01:31:27.520Z,68.50
2019-06-26T01:33:57.956Z,68.40
2019-06-26T01:36:28.478Z,68.00
2019-06-26T01:38:58.830Z,67.90
2019-06-26T01:41:29.022Z,67.10
2019-06-26T01:44:13.590Z,67.50
2019-06-26T01:46:30.880Z,67.50
2019-06-26T01:49:01.147Z,67.40
2019-06-26T01:51:31.635Z,67.30
2019-06-26T01:54:02.221Z,67.60
2019-06-26T01:56:32.534Z,67.60
2019-06-26T01:59:02.805Z,66.80
2019-06-26T02:01:33.039Z,66.90
2019-06-26T02:04:03.454Z,66.80
2019-06-26T02:06:34.077Z,66.90
2019-06-26T02:09:04.511Z,66.60
2019-06-26T02:11:34.716Z,66.90
2019-06-26T02:14:05.299Z,66.40
2019-06-26T02:16:36.676Z,66.40
2019-06-26T02:19:08.383Z,66.20
2019-06-26T02:21:38.664Z,65.80
2019-06-26T02:24:08.920Z,65.70
2019-06-26T02:26:39.276Z,65.60
2019-06-26T02:29:09.798Z,65.30
2019-06-26T02:31:40.124Z,65.00
2019-06-26T02:34:10.732Z,65.20
2019-06-26T02:36:40.986Z,64.60
2019-06-26T02:39:11.133Z,64.90
2019-06-26T02:41:41.571Z,64.70
2019-06-26T02:46:32.720Z,64.50
2019-06-26T02:49:04.679Z,65.00
2019-06-26T02:51:35.472Z,64.90
2019-06-26T02:54:06.301Z,64.20
2019-06-26T02:56:36.542Z,63.80
2019-06-26T02:59:06.965Z,63.40
2019-06-26T03:01:37.298Z,62.90
2019-06-26T03:04:07.470Z,62.90
2019-06-26T03:06:37.798Z,63.20
2019-06-26T03:09:08.879Z,63.30
2019-06-26T03:11:39.265Z,63.40
2019-06-26T03:14:09.693Z,62.70
2019-06-26T03:16:40.016Z,62.70
2019-06-26T03:19:10.822Z,63.00
2019-06-26T03:21:41.221Z,62.90
2019-06-26T03:24:11.543Z,62.10
2019-06-26T03:26:41.782Z,59.70
2019-06-26T03:29:12.063Z,61.20
2019-06-26T03:31:42.365Z,61.10
2019-06-26T03:34:13.052Z,60.00
2019-06-26T03:36:43.385Z,60.20
2019-06-26T03:39:13.512Z,60.70
2019-06-26T03:41:43.924Z,61.00
2019-06-26T03:44:14.142Z,59.60
2019-06-26T03:46:44.529Z,59.90
2019-06-26T03:49:14.928Z,58.90
2019-06-26T03:51:45.430Z,58.80
2019-06-26T03:54:15.703Z,59.20
2019-06-26T03:56:45.958Z,57.80
2019-06-26T03:59:16.320Z,58.00
2019-06-26T04:01:46.455Z,58.70
2019-06-26T04:04:16.796Z,58.00
2019-06-26T04:06:47.325Z,56.60
2019-06-26T04:09:17.629Z,58.20
2019-06-26T04:11:48.160Z,58.30
2019-06-26T04:14:18.602Z,58.00
2019-06-26T04:16:49.337Z,58.10
2019-06-26T04:19:19.658Z,57.80
2019-06-26T04:21:49.983Z,56.00
2019-06-26T04:25:38.703Z,55.10
2019-06-26T04:28:10.039Z,55.70
2019-06-26T04:30:40.746Z,56.10
2019-06-26T04:33:11.169Z,56.60
2019-06-26T04:35:41.644Z,56.70
2019-06-26T04:38:12.069Z,56.60
2019-06-26T04:40:42.575Z,55.70
2019-06-26T04:43:13.256Z,55.50
2019-06-26T04:45:57.121Z,55.80
2019-06-26T04:48:15.436Z,56.30
2019-06-26T04:50:45.955Z,56.50
2019-06-26T04:53:16.250Z,56.70
2019-06-26T04:55:46.790Z,56.70
2019-06-26T04:58:17.112Z,56.90
2019-06-26T05:00:47.499Z,56.70
2019-06-26T05:03:17.859Z,56.50
2019-06-26T05:05:47.997Z,56.60
2019-06-26T05:08:18.969Z,56.40
2019-06-26T05:10:49.577Z,56.30
2019-06-26T05:13:20.003Z,56.40
2019-06-26T05:15:50.369Z,56.40
2019-06-26T05:18:20.479Z,56.30
2019-06-26T05:20:51.607Z,56.30
2019-06-26T05:23:22.112Z,56.40
2019-06-26T05:25:52.746Z,56.80
2019-06-26T05:28:23.025Z,56.90
2019-06-26T05:30:53.363Z,57.10
2019-06-26T05:33:23.617Z,57.30
2019-06-26T05:35:54.011Z,57.40
2019-06-26T05:38:24.350Z,57.50
2019-06-26T05:40:54.479Z,57.50
2019-06-26T05:43:25.187Z,57.40
2019-06-26T05:45:55.510Z,57.40
2019-06-26T05:48:25.816Z,57.50
2019-06-26T05:50:56.420Z,57.30
2019-06-26T05:53:26.707Z,57.10
2019-06-26T05:55:57.015Z,56.90
2019-06-26T05:58:27.451Z,56.80
2019-06-26T06:00:57.724Z,56.80
2019-06-26T06:03:28.092Z,56.70
2019-06-26T06:05:58.527Z,56.40
2019-06-26T06:10:58.631Z,54.90
2019-06-26T06:13:28.937Z,55.30
2019-06-26T06:15:59.226Z,55.20
2019-06-26T06:18:30.361Z,55.20
2019-06-26T06:21:00.925Z,55.00
2019-06-26T06:23:31.370Z,52.80
2019-06-26T06:26:01.580Z,54.30
2019-06-26T06:28:32.515Z,52.60
2019-06-26T06:31:02.823Z,53.50
2019-06-26T06:33:32.979Z,54.00
2019-06-26T06:36:04.095Z,54.20
2019-06-26T06:38:34.468Z,54.10
2019-06-26T06:41:04.734Z,53.90
2019-06-26T06:43:35.048Z,53.90
2019-06-26T06:46:05.494Z,53.90
2019-06-26T06:48:35.850Z,53.80
2019-06-26T06:51:06.748Z,53.20
2019-06-26T06:53:37.047Z,52.50
2019-06-26T06:56:07.255Z,52.30
2019-06-26T06:58:37.634Z,52.50
2019-06-26T07:01:08.097Z,52.50
2019-06-26T07:03:38.539Z,52.20
2019-06-26T07:06:08.863Z,50.60
2019-06-26T07:08:41.021Z,49.00
2019-06-26T07:11:11.578Z,50.00
2019-06-26T07:13:41.862Z,50.70
2019-06-26T07:16:12.338Z,51.30
2019-06-26T07:18:42.449Z,50.60
2019-06-26T07:21:12.683Z,50.90
2019-06-26T07:23:43.340Z,50.20
2019-06-26T07:26:13.828Z,51.00
2019-06-26T07:28:44.243Z,50.80
2019-06-26T07:31:14.598Z,49.70
2019-06-26T07:33:44.796Z,50.40
2019-06-26T07:36:15.045Z,50.60
2019-06-26T07:38:45.519Z,50.30
2019-06-26T07:41:51.029Z,50.40
2019-06-26T07:44:21.432Z,50.60
2019-06-26T07:46:52.231Z,50.70
2019-06-26T07:49:22.491Z,50.60
2019-06-26T07:51:52.735Z,49.30
2019-06-26T07:54:23.104Z,50.70
2019-06-26T07:56:53.249Z,50.60
2019-06-26T07:59:23.835Z,50.80
2019-06-26T08:01:54.156Z,51.10
2019-06-26T08:04:24.553Z,51.30
2019-06-26T08:06:54.846Z,49.80
2019-06-26T08:09:25.190Z,49.10
2019-06-26T08:11:55.719Z,50.50
2019-06-26T08:14:26.068Z,50.80
2019-06-26T08:16:56.401Z,51.00
2019-06-26T08:19:26.916Z,51.00
2019-06-26T08:21:57.246Z,51.10
2019-06-26T08:24:27.334Z,51.10
2019-06-26T08:26:57.574Z,51.10
2019-06-26T08:29:27.993Z,51.10
2019-06-26T08:31:58.354Z,51.00
2019-06-26T08:34:28.667Z,50.90
2019-06-26T08:36:58.912Z,48.80
2019-06-26T08:39:30.829Z,50.30
2019-06-26T08:42:01.570Z,50.50
2019-06-26T08:44:31.989Z,50.70
2019-06-26T08:47:02.516Z,50.70
2019-06-26T08:50:17.159Z,50.70
2019-06-26T08:52:47.726Z,50.20
2019-06-26T08:55:18.344Z,50.30
2019-06-26T08:57:49.008Z,50.50
2019-06-26T09:00:20.114Z,50.60
2019-06-26T09:02:50.476Z,50.60
2019-06-26T09:05:21.630Z,50.60
2019-06-26T09:07:54.823Z,50.50
2019-06-26T09:10:25.426Z,50.50
2019-06-26T09:12:55.765Z,50.70
2019-06-26T09:15:26.457Z,50.40
2019-06-26T09:17:56.746Z,50.80
2019-06-26T09:20:29.917Z,50.90
2019-06-26T09:23:00.374Z,51.10
2019-06-26T09:25:30.678Z,51.10
2019-06-26T09:28:01.028Z,51.00
2019-06-26T09:30:31.469Z,50.90
2019-06-26T09:33:02.395Z,50.80
2019-06-26T09:35:32.986Z,50.50
2019-06-26T09:38:03.801Z,50.50
2019-06-26T09:40:34.289Z,50.40
2019-06-26T09:43:04.493Z,50.00
2019-06-26T09:45:35.563Z,50.00
2019-06-26T09:48:05.912Z,49.30
2019-06-26T09:50:36.363Z,49.80
2019-06-26T09:53:06.738Z,49.80
2019-06-26T09:55:37.076Z,49.70
2019-06-26T09:58:07.450Z,49.70
2019-06-26T10:00:37.952Z,50.00
2019-06-26T10:03:08.621Z,50.00
2019-06-26T10:05:38.843Z,50.00
2019-06-26T10:08:09.149Z,50.30
2019-06-26T10:10:39.486Z,50.30
2019-06-26T10:13:09.687Z,50.40
2019-06-26T10:15:40.294Z,50.20
2019-06-26T10:18:10.579Z,50.20
2019-06-26T10:20:41.108Z,50.10
2019-06-26T10:23:11.422Z,48.90
2019-06-26T10:25:41.803Z,49.60
2019-06-26T10:28:12.226Z,49.80
2019-06-26T10:30:42.711Z,49.70
2019-06-26T10:33:13.044Z,49.70
2019-06-26T10:35:43.622Z,49.20
2019-06-26T10:38:13.801Z,49.20
2019-06-26T10:40:44.441Z,49.00
2019-06-26T10:43:14.598Z,49.20
2019-06-26T10:45:45.134Z,49.20
2019-06-26T10:48:15.440Z,49.10
2019-06-26T10:50:51.196Z,49.10
2019-06-26T10:53:17.693Z,49.00
2019-06-26T10:55:48.312Z,49.10
2019-06-26T10:58:18.718Z,49.10
2019-06-26T11:00:50.516Z,49.20
2019-06-26T11:03:21.186Z,49.10
2019-06-26T11:05:51.418Z,49.00
2019-06-26T11:08:21.798Z,49.10
2019-06-26T11:10:52.040Z,49.20
2019-06-26T11:13:22.220Z,48.80
2019-06-26T11:15:52.581Z,49.10
2019-06-26T11:18:23.139Z,49.20
2019-06-26T11:20:53.437Z,48.40
2019-06-26T11:23:23.661Z,49.20
2019-06-26T11:25:54.309Z,49.30
2019-06-26T11:28:24.772Z,49.60
2019-06-26T11:30:55.006Z,49.70
2019-06-26T11:33:26.711Z,49.90
2019-06-26T11:35:57.092Z,50.20
2019-06-26T11:38:27.170Z,50.50
2019-06-26T11:40:57.411Z,50.80
2019-06-26T11:43:27.620Z,51.10
2019-06-26T11:45:58.028Z,51.30
2019-06-26T11:48:28.217Z,51.50
2019-06-26T11:50:58.437Z,51.80
2019-06-26T11:53:28.703Z,51.90
2019-06-26T11:55:59.116Z,52.10
2019-06-26T11:58:29.400Z,52.40
2019-06-26T12:00:59.713Z,52.60
2019-06-26T12:03:30.086Z,52.90
2019-06-26T12:06:12.233Z,52.80
2019-06-26T12:08:32.275Z,52.90
2019-06-26T12:11:02.868Z,53.00
2019-06-26T12:13:33.556Z,53.00
2019-06-26T12:16:04.202Z,53.20
2019-06-26T12:18:34.392Z,53.30
2019-06-26T12:21:04.662Z,53.40
2019-06-26T12:23:35.045Z,53.50
2019-06-26T12:26:05.469Z,53.60
2019-06-26T12:28:35.738Z,53.90
2019-06-26T12:31:06.088Z,54.00
2019-06-26T12:33:36.346Z,54.20
2019-06-26T12:36:07.114Z,54.30
2019-06-26T12:38:37.283Z,54.50
2019-06-26T12:41:07.718Z,54.60
2019-06-26T12:43:38.179Z,54.70
2019-06-26T12:46:08.715Z,54.90
2019-06-26T12:48:38.865Z,55.00
2019-06-26T12:51:09.730Z,55.10
2019-06-26T12:53:40.061Z,55.20
2019-06-26T12:56:10.508Z,55.20
2019-06-26T12:58:41.005Z,55.40
2019-06-26T13:01:11.442Z,55.40
2019-06-26T13:03:41.754Z,55.40
2019-06-26T13:08:47.530Z,55.50
2019-06-26T13:11:17.920Z,55.50
2019-06-26T13:14:01.417Z,55.50
2019-06-26T13:16:19.893Z,55.70
2019-06-26T13:18:50.232Z,55.70
2019-06-26T13:21:20.436Z,55.80
2019-06-26T13:23:51.053Z,55.80
2019-06-26T13:26:21.865Z,55.90
2019-06-26T13:28:51.984Z,55.80
2019-06-26T13:31:23.874Z,55.80
2019-06-26T13:33:54.205Z,55.80
2019-06-26T13:36:24.523Z,55.70
2019-06-26T13:38:55.063Z,55.70
2019-06-26T13:41:25.225Z,55.70
2019-06-26T13:43:55.646Z,55.70
2019-06-26T13:46:26.074Z,55.70
2019-06-26T13:48:56.174Z,55.70
2019-06-26T13:51:26.753Z,55.90
2019-06-26T13:53:57.519Z,56.00
2019-06-26T13:56:27.780Z,56.10
2019-06-26T13:58:57.965Z,56.20
2019-06-26T14:01:28.251Z,56.30
2019-06-26T14:03:58.528Z,56.30
2019-06-26T14:06:29.061Z,56.60
2019-06-26T14:08:59.600Z,56.70
2019-06-26T14:11:29.878Z,56.80
2019-06-26T14:14:00.266Z,56.70
2019-06-26T14:16:30.902Z,56.80
2019-06-26T14:19:01.299Z,56.90
2019-06-26T14:21:31.888Z,56.90
2019-06-26T14:24:02.220Z,56.80
2019-06-26T14:26:32.499Z,56.90
2019-06-26T14:29:02.736Z,56.80
2019-06-26T14:31:32.943Z,56.90
2019-06-26T14:34:03.451Z,56.90
2019-06-26T14:36:33.762Z,56.80
2019-06-26T14:39:04.038Z,56.90
2019-06-26T14:41:34.507Z,56.90
2019-06-26T14:44:04.671Z,57.00
2019-06-26T14:46:34.972Z,57.00
2019-06-26T14:49:05.280Z,57.10
2019-06-26T14:51:43.872Z,57.10
2019-06-26T14:54:07.037Z,57.20
2019-06-26T14:56:37.375Z,57.10
2019-06-26T14:59:07.773Z,57.30
2019-06-26T15:01:38.160Z,57.30
2019-06-26T15:04:08.317Z,57.50
2019-06-26T15:06:38.534Z,57.50
2019-06-26T15:09:08.952Z,57.80
2019-06-26T15:11:39.206Z,57.90
2019-06-26T15:14:09.454Z,57.80
2019-06-26T15:16:40.037Z,57.90
2019-06-26T15:19:10.414Z,58.00
2019-06-26T15:21:40.653Z,58.10
2019-06-26T15:24:11.045Z,58.00
2019-06-26T15:26:41.241Z,58.30
2019-06-26T15:29:11.538Z,58.30
2019-06-26T15:31:41.811Z,58.30
2019-06-26T15:34:12.208Z,58.40
2019-06-26T15:36:42.382Z,58.90
2019-06-26T15:39:12.638Z,58.50
2019-06-26T15:41:42.763Z,58.60
2019-06-26T15:44:13.116Z,58.60
2019-06-26T15:46:43.372Z,58.80
2019-06-26T15:49:13.841Z,58.80
2019-06-26T15:51:44.323Z,59.00
2019-06-26T15:54:14.785Z,59.00
2019-06-26T15:56:45.122Z,59.10
2019-06-26T15:59:15.623Z,59.30
2019-06-26T16:01:45.736Z,59.20
2019-06-26T16:04:16.282Z,59.90
2019-06-26T16:06:48.132Z,59.70
2019-06-26T16:09:18.592Z,59.70
2019-06-26T16:11:49.060Z,60.50
2019-06-26T16:14:19.827Z,60.50
2019-06-26T16:16:51.257Z,60.20
2019-06-26T16:19:22.868Z,60.80
2019-06-26T16:21:53.051Z,60.50
2019-06-26T16:24:23.324Z,60.70
2019-06-26T16:26:53.605Z,60.40
2019-06-26T16:29:25.017Z,60.90
2019-06-26T16:31:55.281Z,61.10
2019-06-26T16:34:25.768Z,61.00
2019-06-26T16:36:55.970Z,60.50
2019-06-26T16:39:26.426Z,61.20
2019-06-26T16:41:56.807Z,61.20
2019-06-26T16:44:27.162Z,61.00
2019-06-26T16:46:59.313Z,61.10
2019-06-26T16:49:29.280Z,61.30
2019-06-26T16:51:59.580Z,60.90
2019-06-26T16:54:29.859Z,61.00
2019-06-26T16:57:00.177Z,61.20
2019-06-26T16:59:30.426Z,61.50
2019-06-26T17:02:00.802Z,61.60
2019-06-26T17:04:30.958Z,61.60
2019-06-26T17:07:02.235Z,61.60
2019-06-26T17:09:32.714Z,61.30
2019-06-26T17:12:03.104Z,61.30
2019-06-26T17:14:33.299Z,61.50
2019-06-26T17:17:03.447Z,61.90
2019-06-26T17:19:33.738Z,62.40
2019-06-26T17:22:04.104Z,61.90
2019-06-26T17:24:34.380Z,61.90
2019-06-26T17:27:04.691Z,61.70
2019-06-26T17:29:35.698Z,61.90
2019-06-26T17:32:05.965Z,62.30
2019-06-26T17:34:36.729Z,62.20
2019-06-26T17:37:06.939Z,62.20
2019-06-26T17:39:37.159Z,62.20
2019-06-26T17:42:07.301Z,62.80
2019-06-26T17:44:37.676Z,62.70
2019-06-26T17:47:08.123Z,62.40
2019-06-26T17:49:38.464Z,62.10
2019-06-26T17:52:08.924Z,62.10
2019-06-26T17:54:39.222Z,62.20
2019-06-26T17:57:09.527Z,62.10
2019-06-26T17:59:40.272Z,62.10
2019-06-26T18:02:10.412Z,61.90
2019-06-26T18:04:40.729Z,62.10
2019-06-26T18:07:10.885Z,62.20
2019-06-26T18:09:41.195Z,62.20
2019-06-26T18:12:11.370Z,62.30
2019-06-26T18:14:43.375Z,62.50
2019-06-26T18:17:22.065Z,63.10
2019-06-26T18:19:45.285Z,63.10
2019-06-26T18:22:15.392Z,63.70
2019-06-26T18:24:46.043Z,63.70
2019-06-26T18:27:16.192Z,64.20
2019-06-26T18:29:46.354Z,64.10
2019-06-26T18:32:16.922Z,63.90
2019-06-26T18:34:47.212Z,63.30
2019-06-26T18:37:17.433Z,64.10
2019-06-26T18:39:48.022Z,64.20
2019-06-26T18:42:18.543Z,64.30
2019-06-26T18:44:48.965Z,64.50
2019-06-26T18:47:19.214Z,64.80
2019-06-26T18:49:49.604Z,64.60
2019-06-26T18:52:19.711Z,64.60
2019-06-26T18:54:50.137Z,64.80
2019-06-26T18:57:20.514Z,65.00
2019-06-26T18:59:50.963Z,65.60
2019-06-26T19:02:21.209Z,65.80
2019-06-26T19:04:54.009Z,65.10
2019-06-26T19:07:22.935Z,65.20
2019-06-26T19:09:53.160Z,65.90
2019-06-26T19:12:23.387Z,65.40
2019-06-26T19:14:53.682Z,65.40
2019-06-26T19:17:23.910Z,65.90
2019-06-26T19:19:54.883Z,65.50
2019-06-26T19:22:25.415Z,65.50
2019-06-26T19:24:55.986Z,65.60
2019-06-26T19:27:26.144Z,66.30
2019-06-26T19:29:56.444Z,66.10
2019-06-26T19:32:26.777Z,66.40
2019-06-26T19:34:56.916Z,66.80
2019-06-26T19:37:27.247Z,66.70
2019-06-26T19:39:57.633Z,66.40
2019-06-26T19:42:27.883Z,66.80
2019-06-26T19:44:58.645Z,66.90
2019-06-26T19:49:58.502Z,66.70
2019-06-26T19:52:31.989Z,67.50
2019-06-26T19:55:00.220Z,72.30
2019-06-26T19:57:30.734Z,74.80
2019-06-26T20:00:01.035Z,77.50
2019-06-26T20:05:01.052Z,68.30
2019-06-26T20:07:31.297Z,68.40
2019-06-26T20:10:02.041Z,82.40
2019-06-26T20:12:32.476Z,68.80
2019-06-26T20:15:03.108Z,68.70
2019-06-26T20:17:33.988Z,68.40
2019-06-26T20:20:05.215Z,68.60
2019-06-26T20:22:35.535Z,68.80
2019-06-26T20:25:08.210Z,68.60
2019-06-26T20:27:38.495Z,68.60
2019-06-26T20:30:10.818Z,68.80
2019-06-26T20:32:41.089Z,69.20
2019-06-26T20:35:11.547Z,68.70
2019-06-26T20:37:41.873Z,68.70
2019-06-26T20:40:12.348Z,68.80
2019-06-26T20:42:42.467Z,68.80
2019-06-26T20:45:13.901Z,69.10
2019-06-26T20:47:44.156Z,69.20
2019-06-26T20:50:14.497Z,69.20
2019-06-26T20:52:45.714Z,69.40
2019-06-26T20:55:16.250Z,69.50
2019-06-26T20:57:46.488Z,69.50
2019-06-26T21:00:17.822Z,69.50
2019-06-26T21:02:48.124Z,69.70
2019-06-26T21:05:18.442Z,69.70
2019-06-26T21:07:48.720Z,69.90
2019-06-26T21:10:19.147Z,69.90
2019-06-26T21:12:49.376Z,69.90
2019-06-26T21:15:19.713Z,69.90
2019-06-26T21:17:49.911Z,70.20
2019-06-26T21:20:20.568Z,70.20
2019-06-26T21:22:50.883Z,70.30
2019-06-26T21:25:21.842Z,70.30
2019-06-26T21:27:52.292Z,70.50
2019-06-26T21:30:22.592Z,70.60
2019-06-26T21:32:53.429Z,70.70
2019-06-26T21:35:23.681Z,70.80
2019-06-26T21:37:54.584Z,70.80
2019-06-26T21:40:24.939Z,71.50
2019-06-26T21:42:55.148Z,71.60
2019-06-26T21:45:25.556Z,71.30
2019-06-26T21:47:56.159Z,71.80
2019-06-26T21:50:28.886Z,71.80
2019-06-26T21:52:57.975Z,72.20
2019-06-26T21:55:34.240Z,71.80
2019-06-26T21:57:59.620Z,71.90
2019-06-26T22:00:31.052Z,72.50
2019-06-26T22:03:01.599Z,72.70
2019-06-26T22:05:32.006Z,72.20
2019-06-26T22:08:02.185Z,72.30
2019-06-26T22:10:32.537Z,72.20
2019-06-26T22:13:02.792Z,72.10
2019-06-26T22:15:32.954Z,72.20
2019-06-26T22:18:03.400Z,72.50
2019-06-26T22:20:33.916Z,72.20
2019-06-26T22:23:04.358Z,73.10
2019-06-26T22:25:49.862Z,72.50
2019-06-26T22:28:06.333Z,72.30
2019-06-26T22:30:36.548Z,72.40
2019-06-26T22:33:06.878Z,72.30
2019-06-26T22:35:37.183Z,72.20
2019-06-26T22:38:07.513Z,72.20
2019-06-26T22:40:37.597Z,72.90
2019-06-26T22:43:07.919Z,72.70
2019-06-26T22:45:38.575Z,72.40
2019-06-26T22:48:08.904Z,72.60
2019-06-26T22:50:39.225Z,72.40
2019-06-26T22:53:09.362Z,72.80
2019-06-26T22:55:39.703Z,72.60
2019-06-26T22:58:10.128Z,72.70
2019-06-26T23:00:40.423Z,73.00
2019-06-26T23:03:11.533Z,73.60
2019-06-26T23:05:41.879Z,73.40
2019-06-26T23:08:12.175Z,72.80
2019-06-26T23:10:42.375Z,73.00
2019-06-26T23:13:12.687Z,72.80
2019-06-26T23:15:42.887Z,72.80
2019-06-26T23:18:13.145Z,73.70
2019-06-26T23:20:43.922Z,73.00
2019-06-26T23:23:14.232Z,73.00
2019-06-26T23:25:44.333Z,72.80
2019-06-26T23:28:14.598Z,72.90
2019-06-26T23:30:44.864Z,73.00
2019-06-26T23:33:15.284Z,72.80
2019-06-26T23:35:45.558Z,73.00
2019-06-26T23:38:15.745Z,72.80
2019-06-26T23:40:45.907Z,72.90
2019-06-26T23:43:16.085Z,73.00
2019-06-26T23:45:46.421Z,73.10
2019-06-26T23:48:16.944Z,72.90
2019-06-26T23:50:47.310Z,72.80
2019-06-26T23:53:17.636Z,72.90
2019-06-26T23:55:48.203Z,73.00
2019-06-26T23:58:18.446Z,72.90
